Time;durP1;ratioP1;P1;durP2;ratioP2;P2;SDS_P1;SDS_P2;PMS_P1;PMS_P2;Temp;Humidity;BMP_temperature;BMP_pressure;BME280_temperature;BME280_humidity;BME280_pressure;Samples;Min_cycle;Max_cycle;Signal;HPM_P1;HPM_P2
2022/12/05 00:01:23;;;;;;;;;;;4.10;99.90;;;;;;5024009;28;20193;-55
2022/12/05 00:03:49;;;;;;;;;;;4.00;99.90;;;;;;5008271;28;19914;-54
2022/12/05 00:06:15;;;;;;;;;;;4.00;99.90;;;;;;5009235;28;19920;-57
2022/12/05 00:08:41;;;;;;;;;;;4.00;99.90;;;;;;5009843;28;20165;-56
2022/12/05 00:11:12;;;;;;;;;;;4.10;99.90;;;;;;5010221;28;20465;-56
2022/12/05 00:13:39;;;;;;;;;;;4.00;99.90;;;;;;5009156;28;19922;-57
2022/12/05 00:16:06;;;;;;;;;;;4.00;99.90;;;;;;5009741;28;19917;-53
2022/12/05 00:18:32;;;;;;;;;;;4.00;99.90;;;;;;5010034;28;19967;-56
2022/12/05 00:20:58;;;;;;;;;;;3.90;99.90;;;;;;5009748;28;20016;-55
2022/12/05 00:23:23;;;;;;;;;;;3.90;99.90;;;;;;5004689;28;20008;-56
2022/12/05 00:25:48;;;;;;;;;;;3.90;99.90;;;;;;5009752;28;19996;-56
2022/12/05 00:28:14;;;;;;;;;;;3.90;99.90;;;;;;5009436;28;20371;-56
2022/12/05 00:30:40;;;;;;;;;;;3.90;99.90;;;;;;5006522;28;20307;-54
2022/12/05 00:33:05;;;;;;;;;;;3.90;99.90;;;;;;5008320;28;19921;-57
2022/12/05 00:35:32;;;;;;;;;;;3.90;99.90;;;;;;5007688;28;20394;-57
2022/12/05 00:37:57;;;;;;;;;;;3.90;99.90;;;;;;5006299;28;19922;-57
2022/12/05 00:40:23;;;;;;;;;;;3.90;99.90;;;;;;5009152;28;20172;-54
2022/12/05 00:42:48;;;;;;;;;;;3.90;99.90;;;;;;5009335;28;19917;-55
2022/12/05 00:45:14;;;;;;;;;;;3.90;99.90;;;;;;5024301;28;19972;-53
2022/12/05 00:47:39;;;;;;;;;;;3.90;99.90;;;;;;5009553;28;19921;-58
2022/12/05 00:50:05;;;;;;;;;;;3.90;99.90;;;;;;5008729;28;19913;-55
2022/12/05 00:52:30;;;;;;;;;;;4.00;99.90;;;;;;5007638;28;20375;-57
2022/12/05 00:54:56;;;;;;;;;;;4.00;99.90;;;;;;5009171;28;19921;-53
2022/12/05 00:57:22;;;;;;;;;;;4.00;99.90;;;;;;5008221;28;20372;-52
2022/12/05 00:59:47;;;;;;;;;;;4.00;99.90;;;;;;5008272;28;19918;-55
2022/12/05 01:02:13;;;;;;;;;;;4.00;99.90;;;;;;5007650;28;19939;-55
2022/12/05 01:04:38;;;;;;;;;;;4.00;99.90;;;;;;5009223;28;19914;-53
2022/12/05 01:07:04;;;;;;;;;;;4.00;99.90;;;;;;5008757;28;19913;-53
2022/12/05 01:09:29;;;;;;;;;;;4.00;99.90;;;;;;5009288;28;19917;-57
2022/12/05 01:11:55;;;;;;;;;;;4.00;99.90;;;;;;5008774;28;19914;-57
2022/12/05 01:14:21;;;;;;;;;;;3.90;99.90;;;;;;5005650;28;19920;-56
2022/12/05 01:16:47;;;;;;;;;;;4.00;99.90;;;;;;5008660;28;19924;-57
2022/12/05 01:19:14;;;;;;;;;;;4.00;99.90;;;;;;5010468;28;20323;-54
2022/12/05 01:21:40;;;;;;;;;;;4.00;99.90;;;;;;5009392;28;19972;-57
2022/12/05 01:24:06;;;;;;;;;;;4.00;99.90;;;;;;5080987;23;19937;-55
2022/12/05 01:26:32;;;;;;;;;;;4.00;99.90;;;;;;5014234;28;19959;-57
2022/12/05 01:28:57;;;;;;;;;;;4.00;99.90;;;;;;5028602;28;19913;-59
2022/12/05 01:31:22;;;;;;;;;;;4.10;99.90;;;;;;5031864;28;19916;-58
2022/12/05 01:33:48;;;;;;;;;;;4.10;99.90;;;;;;5032392;28;19920;-58
2022/12/05 01:36:14;;;;;;;;;;;4.10;99.90;;;;;;5032247;28;19945;-56
2022/12/05 01:38:40;;;;;;;;;;;4.10;99.90;;;;;;5032037;28;19979;-57
2022/12/05 01:41:07;;;;;;;;;;;4.10;99.90;;;;;;5031685;28;19928;-58
2022/12/05 01:43:51;;;;;;;;;;;4.10;99.90;;;;;;5014103;28;19919;-55
2022/12/05 01:46:16;;;;;;;;;;;4.10;99.90;;;;;;5029517;28;19920;-56
2022/12/05 01:48:42;;;;;;;;;;;4.10;99.90;;;;;;5047748;28;19913;-56
2022/12/05 01:51:07;;;;;;;;;;;4.10;99.90;;;;;;5028243;28;19917;-58
2022/12/05 01:53:33;;;;;;;;;;;4.10;99.90;;;;;;5026023;28;20052;-56
2022/12/05 01:55:58;;;;;;;;;;;4.10;99.90;;;;;;5029957;28;20372;-59
2022/12/05 01:58:27;;;;;;;;;;;4.20;99.90;;;;;;5037669;28;20322;-56
2022/12/05 02:00:52;;;;;;;;;;;4.10;99.90;;;;;;5029217;28;19932;-57
2022/12/05 02:03:19;;;;;;;;;;;4.10;99.90;;;;;;5020257;28;19917;-57
2022/12/05 02:05:46;;;;;;;;;;;4.10;99.90;;;;;;5031831;28;19920;-58
2022/12/05 02:08:12;;;;;;;;;;;4.20;99.90;;;;;;5030412;28;20000;-57
2022/12/05 02:10:38;;;;;;;;;;;4.20;99.90;;;;;;5014389;28;19913;-58
2022/12/05 02:13:13;;;;;;;;;;;4.20;99.90;;;;;;5031661;28;20283;-58
2022/12/05 02:15:42;;;;;;;;;;;4.20;99.90;;;;;;5027592;28;19916;-55
2022/12/05 02:18:17;;;;;;;;;;;4.20;99.90;;;;;;5031853;28;19920;-56
2022/12/05 02:21:01;;;;;;;;;;;4.20;99.90;;;;;;5027642;28;19920;-56
2022/12/05 02:23:31;;;;;;;;;;;4.30;99.90;;;;;;5026676;28;19962;-58
2022/12/05 02:25:57;;;;;;;;;;;4.30;99.90;;;;;;5032216;28;19913;-57
2022/12/05 02:28:30;;;;;;;;;;;4.20;99.90;;;;;;5031558;28;19920;-58
2022/12/05 02:31:05;;;;;;;;;;;4.20;99.90;;;;;;5029531;28;19913;-58
2022/12/05 02:33:33;;;;;;;;;;;4.20;99.90;;;;;;5031568;28;20008;-58
2022/12/05 02:36:11;;;;;;;;;;;4.30;99.90;;;;;;5029297;28;19909;-57
2022/12/05 02:38:50;;;;;;;;;;;4.20;99.90;;;;;;5031581;28;19951;-57
2022/12/05 02:41:26;;;;;;;;;;;4.30;99.90;;;;;;5031503;28;19942;-60
2022/12/05 02:43:58;;;;;;;;;;;4.20;99.90;;;;;;5031184;28;19921;-58
2022/12/05 02:46:25;;;;;;;;;;;4.20;99.90;;;;;;5030779;28;19913;-58
2022/12/05 02:48:53;;;;;;;;;;;4.20;99.90;;;;;;5031146;28;20450;-58
2022/12/05 02:51:21;;;;;;;;;;;4.30;99.90;;;;;;5029470;28;20374;-57
2022/12/05 02:53:48;;;;;;;;;;;4.30;99.90;;;;;;5012540;28;20283;-59
2022/12/05 02:56:13;;;;;;;;;;;4.30;99.90;;;;;;5023423;28;19921;-58
2022/12/05 02:58:51;;;;;;;;;;;4.30;99.90;;;;;;5030911;28;19917;-59
2022/12/05 03:01:17;;;;;;;;;;;4.30;99.90;;;;;;5027623;28;19928;-60
2022/12/05 03:03:43;;;;;;;;;;;4.30;99.90;;;;;;5030803;28;19917;-59
2022/12/05 03:06:13;;;;;;;;;;;4.30;99.90;;;;;;5026956;28;19913;-59
2022/12/05 03:08:41;;;;;;;;;;;4.30;99.90;;;;;;5030810;28;19917;-56
2022/12/05 03:11:06;;;;;;;;;;;4.30;99.90;;;;;;5026331;28;19952;-58
2022/12/05 03:13:36;;;;;;;;;;;4.30;99.90;;;;;;5030396;28;19963;-55
2022/12/05 03:16:04;;;;;;;;;;;4.30;99.90;;;;;;5025733;28;19948;-55
2022/12/05 03:18:35;;;;;;;;;;;4.30;99.90;;;;;;5030775;28;20007;-57
2022/12/05 03:21:08;;;;;;;;;;;4.30;99.90;;;;;;5031124;28;19919;-60
2022/12/05 03:23:36;;;;;;;;;;;4.30;99.90;;;;;;5030089;28;19925;-60
2022/12/05 03:26:13;;;;;;;;;;;4.40;99.90;;;;;;5030677;28;19921;-58
2022/12/05 03:28:50;;;;;;;;;;;4.40;99.90;;;;;;5022360;28;19966;-58
2022/12/05 03:31:18;;;;;;;;;;;4.40;99.90;;;;;;5030842;28;20371;-60
2022/12/05 03:33:44;;;;;;;;;;;4.40;99.90;;;;;;5029907;28;19913;-58
2022/12/05 03:36:13;;;;;;;;;;;4.40;99.90;;;;;;5030450;28;20245;-58
2022/12/05 03:38:38;;;;;;;;;;;4.40;99.90;;;;;;5030264;28;20280;-56
2022/12/05 03:41:08;;;;;;;;;;;4.40;99.90;;;;;;5029165;28;19917;-58
2022/12/05 03:43:51;;;;;;;;;;;4.40;99.90;;;;;;5029842;28;19928;-59
2022/12/05 03:46:23;;;;;;;;;;;4.40;99.90;;;;;;5029711;28;20292;-60
2022/12/05 03:48:54;;;;;;;;;;;4.40;99.90;;;;;;5030314;28;20299;-59
2022/12/05 03:51:22;;;;;;;;;;;4.40;99.90;;;;;;5028941;28;19913;-56
2022/12/05 03:53:55;;;;;;;;;;;4.40;99.90;;;;;;5030493;28;19920;-60
2022/12/05 03:56:30;;;;;;;;;;;4.40;99.90;;;;;;5020867;28;19917;-59
2022/12/05 03:58:58;;;;;;;;;;;4.40;99.90;;;;;;5029680;28;19920;-58
2022/12/05 04:01:26;;;;;;;;;;;4.40;99.90;;;;;;5029401;28;20006;-58
2022/12/05 04:03:55;;;;;;;;;;;4.50;99.90;;;;;;5030070;28;19917;-58
2022/12/05 04:06:23;;;;;;;;;;;4.40;99.90;;;;;;5021212;28;19930;-56
2022/12/05 04:09:15;;;;;;;;;;;4.50;99.90;;;;;;5026399;28;20020;-58
2022/12/05 04:11:44;;;;;;;;;;;4.50;99.90;;;;;;5025407;28;19992;-56
2022/12/05 04:14:11;;;;;;;;;;;4.50;99.90;;;;;;5026772;28;19921;-58
2022/12/05 04:17:02;;;;;;;;;;;4.50;99.90;;;;;;5026870;28;20292;-59
2022/12/05 04:21:36;;;;;;;;;;;4.50;99.90;;;;;;5028967;28;19966;-58
2022/12/05 04:22:16;;;;;;;;;;;4.50;99.90;;;;;;5021215;28;20310;-56
2022/12/05 04:27:41;;;;;;;;;;;4.50;99.90;;;;;;5029485;28;19943;-56
2022/12/05 04:30:09;;;;;;;;;;;4.50;99.90;;;;;;5022019;28;19920;-55
2022/12/05 04:32:49;;;;;;;;;;;4.50;99.90;;;;;;5029421;28;20378;-56
2022/12/05 04:35:18;;;;;;;;;;;4.50;99.90;;;;;;5029091;28;19913;-59
2022/12/05 04:37:46;;;;;;;;;;;4.50;99.90;;;;;;5029276;28;19995;-59
2022/12/05 04:40:23;;;;;;;;;;;4.50;99.90;;;;;;5021985;28;19968;-58
2022/12/05 04:42:50;;;;;;;;;;;4.50;99.90;;;;;;5026025;28;19920;-56
2022/12/05 04:45:18;;;;;;;;;;;4.50;99.90;;;;;;5029649;28;20383;-59
2022/12/05 04:47:46;;;;;;;;;;;4.60;99.90;;;;;;5029593;28;19920;-55
2022/12/05 04:50:12;;;;;;;;;;;4.50;99.90;;;;;;5029381;28;19924;-59
2022/12/05 04:52:38;;;;;;;;;;;4.50;99.90;;;;;;5030822;28;19913;-56
2022/12/05 04:55:08;;;;;;;;;;;4.50;99.90;;;;;;5025309;28;19909;-57
2022/12/05 04:58:00;;;;;;;;;;;4.50;99.90;;;;;;5033127;28;19916;-59
2022/12/05 05:00:27;;;;;;;;;;;4.50;99.90;;;;;;5026253;28;19916;-58
2022/12/05 05:03:02;;;;;;;;;;;4.50;99.90;;;;;;5032797;28;19928;-56
2022/12/05 05:05:29;;;;;;;;;;;4.50;99.90;;;;;;5028041;28;19913;-58
2022/12/05 05:07:54;;;;;;;;;;;4.50;99.90;;;;;;5030157;28;19917;-58
2022/12/05 05:10:31;;;;;;;;;;;4.50;99.90;;;;;;5033154;28;20462;-54
2022/12/05 05:12:56;;;;;;;;;;;4.40;99.90;;;;;;5030365;28;19913;-59
2022/12/05 05:15:22;;;;;;;;;;;4.40;99.90;;;;;;5028204;28;19925;-59
2022/12/05 05:17:47;;;;;;;;;;;4.40;99.90;;;;;;5029204;28;19909;-58
2022/12/05 05:20:26;;;;;;;;;;;4.40;99.90;;;;;;5032898;28;19920;-57
2022/12/05 05:22:54;;;;;;;;;;;4.40;99.90;;;;;;5029394;28;19920;-57
2022/12/05 05:25:21;;;;;;;;;;;4.40;99.90;;;;;;5032626;28;19917;-57
2022/12/05 05:27:47;;;;;;;;;;;4.40;99.90;;;;;;5032491;28;19916;-56
2022/12/05 05:30:12;;;;;;;;;;;4.40;99.90;;;;;;5032632;28;19931;-58
2022/12/05 05:32:38;;;;;;;;;;;4.40;99.90;;;;;;5032372;28;19976;-58
2022/12/05 05:35:03;;;;;;;;;;;4.30;99.90;;;;;;5029522;28;19919;-57
2022/12/05 05:37:29;;;;;;;;;;;4.30;99.90;;;;;;5032440;28;19913;-58
2022/12/05 05:39:54;;;;;;;;;;;4.40;99.90;;;;;;5032709;28;19921;-59
2022/12/05 05:42:19;;;;;;;;;;;4.40;99.90;;;;;;5031975;28;19915;-60
2022/12/05 05:44:45;;;;;;;;;;;4.30;99.90;;;;;;5032256;28;19967;-57
2022/12/05 05:47:10;;;;;;;;;;;4.30;99.90;;;;;;5032517;28;20435;-56
2022/12/05 05:49:36;;;;;;;;;;;4.30;99.90;;;;;;5031881;28;19913;-57
2022/12/05 05:52:01;;;;;;;;;;;4.30;99.90;;;;;;5024162;28;19913;-58
2022/12/05 05:54:27;;;;;;;;;;;4.30;99.90;;;;;;5029342;28;19945;-57
2022/12/05 05:56:52;;;;;;;;;;;4.30;99.90;;;;;;5031768;28;19917;-57
2022/12/05 05:59:18;;;;;;;;;;;4.30;99.90;;;;;;5031862;28;19913;-58
2022/12/05 06:01:43;;;;;;;;;;;4.20;99.90;;;;;;5030945;28;19913;-59
2022/12/05 06:04:08;;;;;;;;;;;4.30;99.90;;;;;;5030851;28;19913;-57
2022/12/05 06:06:34;;;;;;;;;;;4.20;99.90;;;;;;5031762;28;19913;-58
2022/12/05 06:08:59;;;;;;;;;;;4.30;99.90;;;;;;5032192;28;19913;-57
2022/12/05 06:11:25;;;;;;;;;;;4.20;99.90;;;;;;5027685;28;21065;-59
2022/12/05 06:13:51;;;;;;;;;;;4.20;99.90;;;;;;5031673;28;19909;-58
2022/12/05 06:16:17;;;;;;;;;;;4.20;99.90;;;;;;5031769;28;20400;-57
2022/12/05 06:18:43;;;;;;;;;;;4.20;99.90;;;;;;5031158;28;19910;-55
2022/12/05 06:21:08;;;;;;;;;;;4.20;99.90;;;;;;5029524;28;19917;-57
2022/12/05 06:23:35;;;;;;;;;;;4.20;99.90;;;;;;5029663;28;19975;-54
2022/12/05 06:26:01;;;;;;;;;;;4.20;99.90;;;;;;5031830;28;20169;-58
2022/12/05 06:28:26;;;;;;;;;;;4.20;99.90;;;;;;5031694;28;20418;-56
2022/12/05 06:30:52;;;;;;;;;;;4.20;99.90;;;;;;5031957;28;20207;-59
2022/12/05 06:33:18;;;;;;;;;;;4.20;99.90;;;;;;5030275;28;20342;-59
2022/12/05 06:35:43;;;;;;;;;;;4.10;99.90;;;;;;5030016;28;19916;-59
2022/12/05 06:38:09;;;;;;;;;;;4.10;99.90;;;;;;5031148;28;19913;-58
2022/12/05 06:40:38;;;;;;;;;;;4.10;99.90;;;;;;5031361;28;19913;-55
2022/12/05 06:43:03;;;;;;;;;;;4.10;99.90;;;;;;5011932;28;20280;-58
2022/12/05 06:45:29;;;;;;;;;;;4.10;99.90;;;;;;5031225;28;20004;-57
2022/12/05 06:47:54;;;;;;;;;;;4.00;99.90;;;;;;5027265;28;20367;-59
2022/12/05 06:50:19;;;;;;;;;;;4.00;99.90;;;;;;5031070;28;19909;-59
2022/12/05 06:52:45;;;;;;;;;;;4.00;99.90;;;;;;5030913;28;19913;-58
2022/12/05 06:55:10;;;;;;;;;;;4.00;99.90;;;;;;5030863;28;19932;-56
2022/12/05 06:57:36;;;;;;;;;;;4.00;99.90;;;;;;5030801;28;20280;-58
2022/12/05 07:02:49;;;;;;;;;;;4.00;99.90;;;;;;5031366;28;20005;-58
2022/12/05 07:05:14;;;;;;;;;;;4.00;99.90;;;;;;5030310;28;19941;-58
2022/12/05 07:07:39;;;;;;;;;;;4.00;99.90;;;;;;5029708;28;20356;-57
2022/12/05 07:10:05;;;;;;;;;;;4.00;99.90;;;;;;5030225;28;19913;-59
2022/12/05 07:12:31;;;;;;;;;;;4.00;99.90;;;;;;5030534;28;19909;-57
2022/12/05 07:14:57;;;;;;;;;;;3.90;99.90;;;;;;5029394;28;19914;-59
2022/12/05 07:17:22;;;;;;;;;;;4.00;99.90;;;;;;5023312;28;20424;-59
2022/12/05 07:19:49;;;;;;;;;;;3.90;99.90;;;;;;5026885;28;19913;-59
2022/12/05 07:22:15;;;;;;;;;;;3.90;99.90;;;;;;5027117;28;20433;-58
2022/12/05 07:24:40;;;;;;;;;;;3.90;99.90;;;;;;5045104;22;19929;-61
2022/12/05 07:27:06;;;;;;;;;;;3.90;99.90;;;;;;5009991;28;19960;-59
2022/12/05 07:29:31;;;;;;;;;;;3.90;99.90;;;;;;5005489;28;19914;-60
2022/12/05 07:31:57;;;;;;;;;;;3.80;99.90;;;;;;5009120;28;20013;-60
2022/12/05 07:34:22;;;;;;;;;;;3.90;99.90;;;;;;5006629;28;19966;-60
2022/12/05 07:36:48;;;;;;;;;;;3.80;99.90;;;;;;5003383;28;20047;-57
2022/12/05 07:39:13;;;;;;;;;;;3.80;99.90;;;;;;5010105;28;19909;-59
2022/12/05 07:41:39;;;;;;;;;;;3.80;99.90;;;;;;5005143;28;19924;-59
2022/12/05 07:44:04;;;;;;;;;;;3.80;99.90;;;;;;5006710;28;19995;-56
2022/12/05 07:46:30;;;;;;;;;;;3.80;99.90;;;;;;5010878;28;20389;-59
2022/12/05 07:48:55;;;;;;;;;;;3.80;99.90;;;;;;5006261;28;19909;-59
2022/12/05 07:51:21;;;;;;;;;;;3.70;99.90;;;;;;5009578;28;20207;-59
2022/12/05 07:53:47;;;;;;;;;;;3.70;99.90;;;;;;5004860;28;19920;-57
2022/12/05 07:56:15;;;;;;;;;;;3.60;99.90;;;;;;5010583;28;20270;-60
2022/12/05 07:58:41;;;;;;;;;;;3.60;99.90;;;;;;5005287;28;19909;-60
2022/12/05 08:01:08;;;;;;;;;;;3.60;99.90;;;;;;5006944;28;20394;-60
2022/12/05 08:03:34;;;;;;;;;;;3.60;99.90;;;;;;5008753;28;19910;-58
2022/12/05 08:06:03;;;;;;;;;;;3.60;99.90;;;;;;5007342;28;19995;-59
2022/12/05 08:08:29;;;;;;;;;;;3.50;99.90;;;;;;5010048;28;19953;-59
2022/12/05 08:10:54;;;;;;;;;;;3.60;99.90;;;;;;5007848;28;19955;-55
2022/12/05 08:13:20;;;;;;;;;;;3.60;99.90;;;;;;5008618;28;20020;-59
2022/12/05 08:15:45;;;;;;;;;;;3.50;99.90;;;;;;5004949;28;19913;-57
2022/12/05 08:18:11;;;;;;;;;;;3.50;99.90;;;;;;5006144;28;19914;-58
2022/12/05 08:20:36;;;;;;;;;;;3.50;99.90;;;;;;5009557;28;19925;-57
2022/12/05 08:23:02;;;;;;;;;;;3.50;99.90;;;;;;5018638;28;20371;-59
2022/12/05 08:25:27;;;;;;;;;;;3.40;99.90;;;;;;5006686;28;20407;-58
2022/12/05 08:27:53;;;;;;;;;;;3.40;99.90;;;;;;5009643;28;19909;-57
2022/12/05 08:30:18;;;;;;;;;;;3.40;99.90;;;;;;5008065;28;20362;-57
2022/12/05 08:32:44;;;;;;;;;;;3.40;99.90;;;;;;5023910;28;19913;-55
2022/12/05 08:35:10;;;;;;;;;;;3.40;99.90;;;;;;5006618;28;20426;-57
2022/12/05 08:37:35;;;;;;;;;;;3.40;99.90;;;;;;5009544;28;19967;-55
2022/12/05 08:40:01;;;;;;;;;;;3.40;99.90;;;;;;5008325;28;19952;-58
2022/12/05 08:42:26;;;;;;;;;;;3.40;99.90;;;;;;5004037;28;20040;-59
2022/12/05 08:44:52;;;;;;;;;;;3.40;99.90;;;;;;5001677;28;20486;-57
2022/12/05 08:47:18;;;;;;;;;;;3.40;99.90;;;;;;5006577;28;19914;-58
2022/12/05 08:49:43;;;;;;;;;;;3.40;99.90;;;;;;5008494;28;20338;-56
2022/12/05 08:52:09;;;;;;;;;;;3.40;99.90;;;;;;5007968;28;20291;-53
2022/12/05 08:54:35;;;;;;;;;;;3.40;99.90;;;;;;5005998;28;20315;-56
2022/12/05 08:57:00;;;;;;;;;;;3.40;99.90;;;;;;5008561;28;19910;-56
2022/12/05 08:59:26;;;;;;;;;;;3.30;99.90;;;;;;5008065;28;20328;-57
2022/12/05 09:01:51;;;;;;;;;;;3.30;99.90;;;;;;5009300;28;19917;-53
2022/12/05 09:04:17;;;;;;;;;;;3.30;99.90;;;;;;5008098;28;20004;-56
2022/12/05 09:06:42;;;;;;;;;;;3.30;99.90;;;;;;5008461;28;19920;-58
2022/12/05 09:09:10;;;;;;;;;;;3.30;99.90;;;;;;5009434;28;20355;-58
2022/12/05 09:11:44;;;;;;;;;;;3.30;99.90;;;;;;5007937;28;19920;-57
2022/12/05 09:14:10;;;;;;;;;;;3.30;99.90;;;;;;5006961;28;19914;-56
2022/12/05 09:16:36;;;;;;;;;;;3.30;99.90;;;;;;5006678;28;19913;-57
2022/12/05 09:19:02;;;;;;;;;;;3.30;99.90;;;;;;5009214;28;19959;-57
2022/12/05 09:21:28;;;;;;;;;;;3.30;99.90;;;;;;5005089;28;19921;-53
2022/12/05 09:23:54;;;;;;;;;;;3.30;99.90;;;;;;5008235;28;20384;-56
2022/12/05 09:26:24;;;;;;;;;;;3.30;99.90;;;;;;5004830;28;19925;-57
2022/12/05 09:28:50;;;;;;;;;;;3.20;99.90;;;;;;5003525;28;20004;-55
2022/12/05 09:31:17;;;;;;;;;;;3.20;99.90;;;;;;5001600;28;20009;-57
2022/12/05 09:33:43;;;;;;;;;;;3.20;99.90;;;;;;5004048;28;19929;-57
2022/12/05 09:36:13;;;;;;;;;;;3.20;99.90;;;;;;5008999;28;19910;-55
2022/12/05 09:38:39;;;;;;;;;;;3.20;99.90;;;;;;5007650;28;20287;-56
2022/12/05 09:41:11;;;;;;;;;;;3.20;99.90;;;;;;5007428;28;19921;-57
2022/12/05 09:43:57;;;;;;;;;;;3.20;99.90;;;;;;5011899;28;20579;-58
2022/12/05 09:46:28;;;;;;;;;;;3.20;99.90;;;;;;5018110;28;20072;-55
2022/12/05 09:48:56;;;;;;;;;;;3.20;99.90;;;;;;5025453;28;19913;-54
2022/12/05 09:51:22;;;;;;;;;;;3.20;99.90;;;;;;5011697;28;20403;-56
2022/12/05 09:53:47;;;;;;;;;;;3.20;99.90;;;;;;5012347;28;19948;-55
2022/12/05 09:56:26;;;;;;;;;;;3.20;99.90;;;;;;5010110;28;19910;-54
2022/12/05 09:58:53;;;;;;;;;;;3.20;99.90;;;;;;5012345;28;20366;-55
2022/12/05 10:01:18;;;;;;;;;;;3.20;99.90;;;;;;5009802;28;20030;-58
2022/12/05 10:03:57;;;;;;;;;;;3.10;99.90;;;;;;5012463;28;20442;-58
2022/12/05 10:06:25;;;;;;;;;;;3.10;99.90;;;;;;5008327;28;19937;-57
2022/12/05 10:09:06;;;;;;;;;;;3.10;99.90;;;;;;5003832;28;19916;-59
2022/12/05 10:11:37;;;;;;;;;;;3.10;99.90;;;;;;5001070;28;19917;-55
2022/12/05 10:14:05;;;;;;;;;;;3.10;99.90;;;;;;5010590;28;19916;-55
2022/12/05 10:16:33;;;;;;;;;;;3.20;99.90;;;;;;5004773;28;19918;-56
2022/12/05 10:19:01;;;;;;;;;;;3.20;99.90;;;;;;5004281;28;19935;-54
2022/12/05 10:21:27;;;;;;;;;;;3.20;99.90;;;;;;5008271;28;19913;-57
2022/12/05 10:23:52;;;;;;;;;;;3.20;99.90;;;;;;5011806;28;19913;-55
2022/12/05 10:26:19;;;;;;;;;;;3.20;99.90;;;;;;5006827;28;20294;-53
2022/12/05 10:29:04;;;;;;;;;;;3.10;99.90;;;;;;5009715;28;19910;-54
2022/12/05 10:31:31;;;;;;;;;;;3.10;99.90;;;;;;4999295;28;20287;-56
2022/12/05 10:34:19;;;;;;;;;;;3.10;99.90;;;;;;5005804;28;20352;-55
2022/12/05 10:36:57;;;;;;;;;;;3.10;99.90;;;;;;5003643;28;20310;-54
2022/12/05 10:39:22;;;;;;;;;;;3.10;99.90;;;;;;5010789;28;19993;-57
2022/12/05 10:41:48;;;;;;;;;;;3.10;99.90;;;;;;5005779;28;19985;-57
2022/12/05 10:44:14;;;;;;;;;;;3.10;99.90;;;;;;5007070;28;19920;-57
2022/12/05 10:46:39;;;;;;;;;;;3.10;99.90;;;;;;5007349;28;20044;-58
2022/12/05 10:49:11;;;;;;;;;;;3.10;99.90;;;;;;5004585;28;20343;-57
2022/12/05 10:51:37;;;;;;;;;;;3.10;99.90;;;;;;5008783;28;19917;-59
2022/12/05 10:54:12;;;;;;;;;;;3.10;99.90;;;;;;5009729;28;19956;-58
2022/12/05 10:56:42;;;;;;;;;;;3.10;99.90;;;;;;5005796;28;19917;-59
2022/12/05 10:59:09;;;;;;;;;;;3.10;99.90;;;;;;5008992;28;19967;-58
2022/12/05 11:01:35;;;;;;;;;;;3.10;99.90;;;;;;5004077;28;19921;-58
2022/12/05 11:04:06;;;;;;;;;;;3.20;99.90;;;;;;5010020;28;19916;-58
2022/12/05 11:06:32;;;;;;;;;;;3.10;99.90;;;;;;5008023;28;19972;-58
2022/12/05 11:09:01;;;;;;;;;;;3.10;99.90;;;;;;5010234;28;19909;-57
2022/12/05 11:11:28;;;;;;;;;;;3.10;99.90;;;;;;5023779;28;19909;-58
2022/12/05 11:13:56;;;;;;;;;;;3.10;99.90;;;;;;5010234;28;19948;-56
2022/12/05 11:16:29;;;;;;;;;;;3.10;99.90;;;;;;5003618;28;19918;-57
2022/12/05 11:18:54;;;;;;;;;;;3.10;99.90;;;;;;5008797;28;20140;-58
2022/12/05 11:21:20;;;;;;;;;;;3.10;99.90;;;;;;5006673;28;19917;-59
2022/12/05 11:23:47;;;;;;;;;;;3.10;99.90;;;;;;5002370;28;19921;-58
2022/12/05 11:26:18;;;;;;;;;;;3.00;99.90;;;;;;5007638;28;19918;-57
2022/12/05 11:28:43;;;;;;;;;;;3.10;99.90;;;;;;5007320;28;19967;-57
2022/12/05 11:31:15;;;;;;;;;;;3.10;99.90;;;;;;5009706;28;19909;-56
2022/12/05 11:33:40;;;;;;;;;;;3.10;99.90;;;;;;5007381;28;19921;-57
2022/12/05 11:36:16;;;;;;;;;;;3.10;99.90;;;;;;5025523;28;19909;-57
2022/12/05 11:38:42;;;;;;;;;;;3.00;99.90;;;;;;5007538;28;19914;-57
2022/12/05 11:41:22;;;;;;;;;;;3.00;99.90;;;;;;5004305;28;20372;-58
2022/12/05 11:44:12;;;;;;;;;;;3.00;99.90;;;;;;5007314;28;19913;-57
2022/12/05 11:46:50;;;;;;;;;;;3.00;99.90;;;;;;5005381;28;19964;-58
2022/12/05 11:49:34;;;;;;;;;;;3.00;99.90;;;;;;5008595;28;19924;-56
2022/12/05 11:51:59;;;;;;;;;;;3.00;99.90;;;;;;5009672;28;20406;-56
2022/12/05 11:54:25;;;;;;;;;;;3.00;99.90;;;;;;5007972;28;19923;-59
2022/12/05 11:56:55;;;;;;;;;;;3.00;99.90;;;;;;5010375;28;19952;-57
2022/12/05 11:59:30;;;;;;;;;;;3.00;99.90;;;;;;5002899;28;19933;-58
2022/12/05 12:01:55;;;;;;;;;;;3.00;99.90;;;;;;5009190;28;19920;-58
2022/12/05 12:04:30;;;;;;;;;;;3.00;99.90;;;;;;5005165;28;19914;-56
2022/12/05 12:06:55;;;;;;;;;;;3.10;99.90;;;;;;5001888;28;20446;-57
2022/12/05 12:09:21;;;;;;;;;;;3.00;99.90;;;;;;5006397;28;19957;-57
2022/12/05 12:11:52;;;;;;;;;;;3.00;99.90;;;;;;5008298;28;20483;-57
2022/12/05 12:14:30;;;;;;;;;;;3.10;99.90;;;;;;4999173;28;19985;-58
2022/12/05 12:17:04;;;;;;;;;;;3.10;99.90;;;;;;5005203;28;20243;-57
2022/12/05 12:19:32;;;;;;;;;;;3.10;99.90;;;;;;5009787;28;20303;-59
2022/12/05 12:22:11;;;;;;;;;;;3.00;99.90;;;;;;5005738;28;19913;-59
2022/12/05 12:24:52;;;;;;;;;;;3.00;99.90;;;;;;5006836;28;20202;-57
2022/12/05 12:27:18;;;;;;;;;;;3.00;99.90;;;;;;5002604;28;19961;-58
2022/12/05 12:29:52;;;;;;;;;;;3.00;99.90;;;;;;5008031;28;19952;-58
2022/12/05 12:32:30;;;;;;;;;;;3.00;99.90;;;;;;4996707;28;19914;-57
2022/12/05 12:35:03;;;;;;;;;;;3.00;99.90;;;;;;4998419;28;20292;-57
2022/12/05 12:37:34;;;;;;;;;;;3.00;99.90;;;;;;5009256;28;20406;-58
2022/12/05 12:40:12;;;;;;;;;;;3.00;99.90;;;;;;5008472;28;19924;-58
2022/12/05 12:42:37;;;;;;;;;;;3.10;99.90;;;;;;5002902;28;19917;-58
2022/12/05 12:45:04;;;;;;;;;;;3.00;99.90;;;;;;5001585;28;19916;-55
2022/12/05 12:47:29;;;;;;;;;;;3.00;99.90;;;;;;5006837;28;19914;-59
2022/12/05 12:50:08;;;;;;;;;;;3.00;99.90;;;;;;5008560;28;19914;-58
2022/12/05 12:52:49;;;;;;;;;;;3.00;99.90;;;;;;5008013;28;19914;-57
2022/12/05 12:55:30;;;;;;;;;;;3.00;99.90;;;;;;5007870;28;19920;-58
2022/12/05 12:58:06;;;;;;;;;;;3.00;99.90;;;;;;5007641;28;19909;-56
2022/12/05 13:00:44;;;;;;;;;;;3.00;99.90;;;;;;5006837;28;19925;-56
2022/12/05 13:03:13;;;;;;;;;;;3.00;99.90;;;;;;5006505;28;20015;-56
2022/12/05 13:05:43;;;;;;;;;;;3.00;99.90;;;;;;5004853;28;19914;-56
2022/12/05 13:08:14;;;;;;;;;;;3.00;99.90;;;;;;5007389;28;19909;-58
2022/12/05 13:10:42;;;;;;;;;;;3.00;99.90;;;;;;5009772;28;19936;-57
2022/12/05 13:13:11;;;;;;;;;;;3.00;99.90;;;;;;5009376;28;19913;-56
2022/12/05 13:15:46;;;;;;;;;;;3.00;99.90;;;;;;5009081;28;19914;-58
2022/12/05 13:18:16;;;;;;;;;;;3.00;99.90;;;;;;5011812;28;19936;-58
2022/12/05 13:20:43;;;;;;;;;;;3.00;99.90;;;;;;5008110;28;20011;-57
2022/12/05 13:23:13;;;;;;;;;;;3.00;99.90;;;;;;5024244;28;20368;-58
2022/12/05 13:25:39;;;;;;;;;;;2.90;99.90;;;;;;5010879;28;20393;-57
2022/12/05 13:28:07;;;;;;;;;;;2.90;99.90;;;;;;5008269;28;20003;-58
2022/12/05 13:30:56;;;;;;;;;;;2.80;99.90;;;;;;5008338;28;19913;-58
2022/12/05 13:33:24;;;;;;;;;;;2.70;99.90;;;;;;5007234;28;19914;-58
2022/12/05 13:44:27;;;;;;;;;;;2.80;99.90;;;;;;5010275;28;19929;-58
2022/12/05 13:46:52;;;;;;;;;;;2.80;99.90;;;;;;5007156;28;19917;-58
2022/12/05 13:49:34;;;;;;;;;;;2.80;99.90;;;;;;5011056;28;20418;-57
2022/12/05 13:52:21;;;;;;;;;;;2.80;99.90;;;;;;5010749;28;19909;-57
2022/12/05 13:54:57;;;;;;;;;;;2.80;99.90;;;;;;5010217;28;19957;-57
2022/12/05 13:57:38;;;;;;;;;;;2.80;99.90;;;;;;5018648;28;20287;-56
2022/12/05 14:00:20;;;;;;;;;;;2.80;99.90;;;;;;5004975;28;19925;-57
2022/12/05 14:02:50;;;;;;;;;;;2.80;99.90;;;;;;5001807;28;19918;-58
2022/12/05 14:05:23;;;;;;;;;;;2.80;99.90;;;;;;5004641;28;19920;-55
2022/12/05 14:07:52;;;;;;;;;;;2.80;99.90;;;;;;5011469;28;19909;-59
2022/12/05 14:10:23;;;;;;;;;;;2.80;99.90;;;;;;5004900;28;19920;-57
2022/12/05 14:12:55;;;;;;;;;;;2.80;99.90;;;;;;5010912;28;19913;-57
2022/12/05 14:15:24;;;;;;;;;;;2.80;99.90;;;;;;5004892;28;20368;-58
2022/12/05 14:17:54;;;;;;;;;;;2.70;99.90;;;;;;5005623;28;19934;-55
2022/12/05 14:20:20;;;;;;;;;;;2.70;99.90;;;;;;5016588;28;19918;-57
2022/12/05 14:23:04;;;;;;;;;;;2.60;99.90;;;;;;5007808;28;19914;-57
2022/12/05 14:25:29;;;;;;;;;;;2.70;99.90;;;;;;5004021;28;19918;-56
2022/12/05 14:27:59;;;;;;;;;;;2.60;99.90;;;;;;5006614;28;19996;-57
2022/12/05 14:30:33;;;;;;;;;;;2.60;99.90;;;;;;5011310;28;19913;-55
2022/12/05 14:33:00;;;;;;;;;;;2.70;99.90;;;;;;5004905;28;19916;-58
2022/12/05 14:35:40;;;;;;;;;;;2.70;99.90;;;;;;5010674;28;19913;-55
2022/12/05 14:38:06;;;;;;;;;;;2.70;99.90;;;;;;5010057;28;19917;-57
2022/12/05 14:40:39;;;;;;;;;;;2.60;99.90;;;;;;5006171;28;19925;-58
2022/12/05 14:43:07;;;;;;;;;;;2.60;99.90;;;;;;5008217;28;19910;-58
2022/12/05 14:45:35;;;;;;;;;;;2.60;99.90;;;;;;5011400;28;19913;-58
2022/12/05 14:48:02;;;;;;;;;;;2.60;99.90;;;;;;5007886;28;19936;-56
2022/12/05 14:50:53;;;;;;;;;;;2.60;99.90;;;;;;5011399;28;19921;-58
2022/12/05 14:53:19;;;;;;;;;;;2.60;99.90;;;;;;5007778;28;19914;-57
2022/12/05 14:55:46;;;;;;;;;;;2.60;99.90;;;;;;5009252;28;19932;-56